sensor_id;sensor_type;location;lat;lon;timestamp;pressure;altitude;pressure_sealevel;temperature
73937;BMP180;59249;59.736;30.568;2022-11-20T00:02:12;101519.00;;;-5.10
73937;BMP180;59249;59.736;30.568;2022-11-20T00:04:42;101509.00;;;-5.10
73937;BMP180;59249;59.736;30.568;2022-11-20T00:07:11;101507.00;;;-5.20
73937;BMP180;59249;59.736;30.568;2022-11-20T00:09:49;101518.00;;;-5.10
73937;BMP180;59249;59.736;30.568;2022-11-20T00:12:25;101524.00;;;-5.10
73937;BMP180;59249;59.736;30.568;2022-11-20T00:15:01;101512.00;;;-5.20
73937;BMP180;59249;59.736;30.568;2022-11-20T00:17:38;101513.00;;;-5.10
73937;BMP180;59249;59.736;30.568;2022-11-20T00:20:08;101492.00;;;-5.10
73937;BMP180;59249;59.736;30.568;2022-11-20T00:22:38;101509.00;;;-5.10
73937;BMP180;59249;59.736;30.568;2022-11-20T00:25:13;101518.00;;;-5.10
73937;BMP180;59249;59.736;30.568;2022-11-20T00:27:43;101496.00;;;-5.00
73937;BMP180;59249;59.736;30.568;2022-11-20T00:30:17;101500.00;;;-5.00
73937;BMP180;59249;59.736;30.568;2022-11-20T00:32:56;101502.00;;;-5.00
73937;BMP180;59249;59.736;30.568;2022-11-20T00:35:27;101502.00;;;-5.00
73937;BMP180;59249;59.736;30.568;2022-11-20T00:38:10;101500.00;;;-5.00
73937;BMP180;59249;59.736;30.568;2022-11-20T00:40:43;101507.00;;;-5.00
73937;BMP180;59249;59.736;30.568;2022-11-20T00:43:19;101506.00;;;-4.90
73937;BMP180;59249;59.736;30.568;2022-11-20T00:45:57;101484.00;;;-5.00
73937;BMP180;59249;59.736;30.568;2022-11-20T00:48:27;101495.00;;;-4.90
73937;BMP180;59249;59.736;30.568;2022-11-20T00:50:57;101483.00;;;-5.00
73937;BMP180;59249;59.736;30.568;2022-11-20T00:53:28;101497.00;;;-5.00
73937;BMP180;59249;59.736;30.568;2022-11-20T00:55:58;101493.00;;;-4.90
73937;BMP180;59249;59.736;30.568;2022-11-20T00:58:30;101491.00;;;-5.00
73937;BMP180;59249;59.736;30.568;2022-11-20T01:01:03;101488.00;;;-5.00
73937;BMP180;59249;59.736;30.568;2022-11-20T01:03:35;101477.00;;;-5.10
73937;BMP180;59249;59.736;30.568;2022-11-20T01:06:10;101480.00;;;-4.90
73937;BMP180;59249;59.736;30.568;2022-11-20T01:08:42;101479.00;;;-4.90
73937;BMP180;59249;59.736;30.568;2022-11-20T01:11:13;101475.00;;;-4.80
73937;BMP180;59249;59.736;30.568;2022-11-20T01:13:46;101464.00;;;-4.90
73937;BMP180;59249;59.736;30.568;2022-11-20T01:16:21;101461.00;;;-5.00
73937;BMP180;59249;59.736;30.568;2022-11-20T01:18:54;101465.00;;;-4.90
73937;BMP180;59249;59.736;30.568;2022-11-20T01:21:30;101450.00;;;-5.00
73937;BMP180;59249;59.736;30.568;2022-11-20T01:24:02;101462.00;;;-5.00
73937;BMP180;59249;59.736;30.568;2022-11-20T01:26:36;101457.00;;;-5.00
73937;BMP180;59249;59.736;30.568;2022-11-20T01:29:15;101455.00;;;-4.90
73937;BMP180;59249;59.736;30.568;2022-11-20T01:31:48;101459.00;;;-4.90
73937;BMP180;59249;59.736;30.568;2022-11-20T01:34:22;101442.00;;;-4.90
73937;BMP180;59249;59.736;30.568;2022-11-20T01:36:55;101459.00;;;-4.80
73937;BMP180;59249;59.736;30.568;2022-11-20T01:39:28;101444.00;;;-4.90
73937;BMP180;59249;59.736;30.568;2022-11-20T01:41:59;101454.00;;;-4.80
73937;BMP180;59249;59.736;30.568;2022-11-20T01:44:53;101458.00;;;-4.80
73937;BMP180;59249;59.736;30.568;2022-11-20T01:47:38;101450.00;;;-4.90
73937;BMP180;59249;59.736;30.568;2022-11-20T01:50:15;101452.00;;;-4.90
73937;BMP180;59249;59.736;30.568;2022-11-20T01:52:54;101455.00;;;-4.80
73937;BMP180;59249;59.736;30.568;2022-11-20T01:55:37;101460.00;;;-4.80
73937;BMP180;59249;59.736;30.568;2022-11-20T01:58:13;101465.00;;;-4.70
73937;BMP180;59249;59.736;30.568;2022-11-20T02:00:53;101457.00;;;-4.80
73937;BMP180;59249;59.736;30.568;2022-11-20T02:03:35;101454.00;;;-4.70
73937;BMP180;59249;59.736;30.568;2022-11-20T02:06:11;101446.00;;;-4.70
73937;BMP180;59249;59.736;30.568;2022-11-20T02:08:47;101448.00;;;-4.70
73937;BMP180;59249;59.736;30.568;2022-11-20T02:11:26;101436.00;;;-4.80
73937;BMP180;59249;59.736;30.568;2022-11-20T02:14:14;101445.00;;;-4.70
73937;BMP180;59249;59.736;30.568;2022-11-20T02:16:50;101432.00;;;-4.80
73937;BMP180;59249;59.736;30.568;2022-11-20T02:19:39;101454.00;;;-4.70
73937;BMP180;59249;59.736;30.568;2022-11-20T02:22:12;101442.00;;;-4.70
73937;BMP180;59249;59.736;30.568;2022-11-20T02:24:50;101440.00;;;-4.80
73937;BMP180;59249;59.736;30.568;2022-11-20T02:27:25;101440.00;;;-4.80
73937;BMP180;59249;59.736;30.568;2022-11-20T02:29:59;101427.00;;;-4.90
73937;BMP180;59249;59.736;30.568;2022-11-20T02:32:38;101439.00;;;-4.90
73937;BMP180;59249;59.736;30.568;2022-11-20T02:35:09;101432.00;;;-4.90
73937;BMP180;59249;59.736;30.568;2022-11-20T02:38:01;101434.00;;;-4.80
73937;BMP180;59249;59.736;30.568;2022-11-20T02:40:32;101425.00;;;-4.90
73937;BMP180;59249;59.736;30.568;2022-11-20T02:43:02;101437.00;;;-4.70
73937;BMP180;59249;59.736;30.568;2022-11-20T02:45:44;101430.00;;;-4.80
73937;BMP180;59249;59.736;30.568;2022-11-20T02:48:16;101433.00;;;-4.80
73937;BMP180;59249;59.736;30.568;2022-11-20T02:50:49;101435.00;;;-4.70
73937;BMP180;59249;59.736;30.568;2022-11-20T02:53:28;101423.00;;;-4.70
73937;BMP180;59249;59.736;30.568;2022-11-20T02:56:14;101414.00;;;-4.70
73937;BMP180;59249;59.736;30.568;2022-11-20T02:58:51;101430.00;;;-4.70
73937;BMP180;59249;59.736;30.568;2022-11-20T03:01:22;101430.00;;;-4.70
73937;BMP180;59249;59.736;30.568;2022-11-20T03:03:55;101426.00;;;-4.70
73937;BMP180;59249;59.736;30.568;2022-11-20T03:06:36;101421.00;;;-4.80
73937;BMP180;59249;59.736;30.568;2022-11-20T03:09:19;101423.00;;;-4.90
73937;BMP180;59249;59.736;30.568;2022-11-20T03:11:54;101415.00;;;-4.80
73937;BMP180;59249;59.736;30.568;2022-11-20T03:14:31;101412.00;;;-4.80
73937;BMP180;59249;59.736;30.568;2022-11-20T03:17:06;101420.00;;;-4.70
73937;BMP180;59249;59.736;30.568;2022-11-20T03:19:39;101418.00;;;-4.70
73937;BMP180;59249;59.736;30.568;2022-11-20T03:22:09;101422.00;;;-4.70
73937;BMP180;59249;59.736;30.568;2022-11-20T03:24:41;101424.00;;;-4.80
73937;BMP180;59249;59.736;30.568;2022-11-20T03:27:20;101414.00;;;-4.70
73937;BMP180;59249;59.736;30.568;2022-11-20T03:30:06;101426.00;;;-4.70
73937;BMP180;59249;59.736;30.568;2022-11-20T03:32:56;101415.00;;;-4.70
73937;BMP180;59249;59.736;30.568;2022-11-20T03:35:25;101415.00;;;-4.70
73937;BMP180;59249;59.736;30.568;2022-11-20T03:37:59;101413.00;;;-4.70
73937;BMP180;59249;59.736;30.568;2022-11-20T03:40:31;101419.00;;;-4.70
73937;BMP180;59249;59.736;30.568;2022-11-20T03:43:10;101421.00;;;-4.70
73937;BMP180;59249;59.736;30.568;2022-11-20T03:45:38;101409.00;;;-4.60
73937;BMP180;59249;59.736;30.568;2022-11-20T03:48:07;101417.00;;;-4.70
73937;BMP180;59249;59.736;30.568;2022-11-20T03:50:36;101421.00;;;-4.60
73937;BMP180;59249;59.736;30.568;2022-11-20T03:53:06;101419.00;;;-4.60
73937;BMP180;59249;59.736;30.568;2022-11-20T03:55:35;101413.00;;;-4.60
73937;BMP180;59249;59.736;30.568;2022-11-20T03:58:23;101416.00;;;-4.70
73937;BMP180;59249;59.736;30.568;2022-11-20T04:00:58;101401.00;;;-4.80
73937;BMP180;59249;59.736;30.568;2022-11-20T04:03:38;101411.00;;;-4.70
73937;BMP180;59249;59.736;30.568;2022-11-20T04:06:19;101413.00;;;-4.70
73937;BMP180;59249;59.736;30.568;2022-11-20T04:09:09;101411.00;;;-4.80
73937;BMP180;59249;59.736;30.568;2022-11-20T04:11:41;101400.00;;;-4.80
73937;BMP180;59249;59.736;30.568;2022-11-20T04:14:14;101403.00;;;-4.70
73937;BMP180;59249;59.736;30.568;2022-11-20T04:16:45;101401.00;;;-4.70
73937;BMP180;59249;59.736;30.568;2022-11-20T04:19:15;101404.00;;;-4.80
73937;BMP180;59249;59.736;30.568;2022-11-20T04:21:45;101393.00;;;-4.80
73937;BMP180;59249;59.736;30.568;2022-11-20T04:24:23;101390.00;;;-4.70
73937;BMP180;59249;59.736;30.568;2022-11-20T04:26:52;101394.00;;;-4.80
73937;BMP180;59249;59.736;30.568;2022-11-20T04:29:28;101392.00;;;-4.90
73937;BMP180;59249;59.736;30.568;2022-11-20T04:32:00;101386.00;;;-4.90
73937;BMP180;59249;59.736;30.568;2022-11-20T04:34:43;101397.00;;;-4.90
73937;BMP180;59249;59.736;30.568;2022-11-20T04:37:15;101392.00;;;-4.90
73937;BMP180;59249;59.736;30.568;2022-11-20T04:39:52;101390.00;;;-4.90
73937;BMP180;59249;59.736;30.568;2022-11-20T04:42:27;101401.00;;;-5.00
73937;BMP180;59249;59.736;30.568;2022-11-20T04:44:59;101396.00;;;-5.20
73937;BMP180;59249;59.736;30.568;2022-11-20T04:47:30;101391.00;;;-5.10
73937;BMP180;59249;59.736;30.568;2022-11-20T04:50:03;101394.00;;;-5.30
73937;BMP180;59249;59.736;30.568;2022-11-20T04:52:57;101400.00;;;-5.20
73937;BMP180;59249;59.736;30.568;2022-11-20T04:55:29;101399.00;;;-5.20
73937;BMP180;59249;59.736;30.568;2022-11-20T04:58:01;101404.00;;;-5.10
73937;BMP180;59249;59.736;30.568;2022-11-20T05:00:32;101393.00;;;-5.20
73937;BMP180;59249;59.736;30.568;2022-11-20T05:03:06;101406.00;;;-5.10
73937;BMP180;59249;59.736;30.568;2022-11-20T05:05:36;101405.00;;;-5.10
73937;BMP180;59249;59.736;30.568;2022-11-20T05:08:21;101400.00;;;-5.10
73937;BMP180;59249;59.736;30.568;2022-11-20T05:11:00;101399.00;;;-5.00
73937;BMP180;59249;59.736;30.568;2022-11-20T05:13:32;101390.00;;;-5.10
73937;BMP180;59249;59.736;30.568;2022-11-20T05:16:04;101398.00;;;-5.10
73937;BMP180;59249;59.736;30.568;2022-11-20T05:18:35;101391.00;;;-5.00
73937;BMP180;59249;59.736;30.568;2022-11-20T05:21:11;101386.00;;;-5.00
73937;BMP180;59249;59.736;30.568;2022-11-20T05:23:41;101395.00;;;-5.20
73937;BMP180;59249;59.736;30.568;2022-11-20T05:26:14;101399.00;;;-5.10
73937;BMP180;59249;59.736;30.568;2022-11-20T05:28:47;101401.00;;;-5.00
73937;BMP180;59249;59.736;30.568;2022-11-20T05:31:19;101408.00;;;-5.10
73937;BMP180;59249;59.736;30.568;2022-11-20T05:33:55;101396.00;;;-5.00
73937;BMP180;59249;59.736;30.568;2022-11-20T05:36:25;101404.00;;;-4.90
73937;BMP180;59249;59.736;30.568;2022-11-20T05:39:13;101412.00;;;-4.90
73937;BMP180;59249;59.736;30.568;2022-11-20T05:41:46;101409.00;;;-5.00
73937;BMP180;59249;59.736;30.568;2022-11-20T05:44:35;101406.00;;;-5.00
73937;BMP180;59249;59.736;30.568;2022-11-20T05:47:06;101404.00;;;-5.10
73937;BMP180;59249;59.736;30.568;2022-11-20T05:49:35;101410.00;;;-5.00
73937;BMP180;59249;59.736;30.568;2022-11-20T05:52:06;101417.00;;;-5.00
73937;BMP180;59249;59.736;30.568;2022-11-20T05:54:38;101413.00;;;-4.90
73937;BMP180;59249;59.736;30.568;2022-11-20T05:57:06;101417.00;;;-5.00
73937;BMP180;59249;59.736;30.568;2022-11-20T05:59:35;101428.00;;;-5.00
73937;BMP180;59249;59.736;30.568;2022-11-20T06:02:11;101407.00;;;-5.00
73937;BMP180;59249;59.736;30.568;2022-11-20T06:04:41;101409.00;;;-4.90
73937;BMP180;59249;59.736;30.568;2022-11-20T06:07:14;101413.00;;;-4.90
73937;BMP180;59249;59.736;30.568;2022-11-20T06:09:43;101414.00;;;-4.90
73937;BMP180;59249;59.736;30.568;2022-11-20T06:12:11;101412.00;;;-4.80
73937;BMP180;59249;59.736;30.568;2022-11-20T06:14:50;101411.00;;;-4.90
73937;BMP180;59249;59.736;30.568;2022-11-20T06:17:21;101417.00;;;-4.90
73937;BMP180;59249;59.736;30.568;2022-11-20T06:19:50;101426.00;;;-4.90
73937;BMP180;59249;59.736;30.568;2022-11-20T06:22:20;101419.00;;;-4.90
73937;BMP180;59249;59.736;30.568;2022-11-20T06:24:49;101427.00;;;-4.90
73937;BMP180;59249;59.736;30.568;2022-11-20T06:27:18;101416.00;;;-5.00
73937;BMP180;59249;59.736;30.568;2022-11-20T06:29:56;101419.00;;;-4.90
73937;BMP180;59249;59.736;30.568;2022-11-20T06:32:29;101415.00;;;-4.90
73937;BMP180;59249;59.736;30.568;2022-11-20T06:34:58;101415.00;;;-4.90
73937;BMP180;59249;59.736;30.568;2022-11-20T06:37:28;101413.00;;;-4.90
73937;BMP180;59249;59.736;30.568;2022-11-20T06:39:57;101412.00;;;-4.80
73937;BMP180;59249;59.736;30.568;2022-11-20T06:42:30;101409.00;;;-4.80
73937;BMP180;59249;59.736;30.568;2022-11-20T06:45:01;101409.00;;;-4.80
73937;BMP180;59249;59.736;30.568;2022-11-20T06:47:32;101427.00;;;-4.80
73937;BMP180;59249;59.736;30.568;2022-11-20T06:50:03;101422.00;;;-4.80
73937;BMP180;59249;59.736;30.568;2022-11-20T06:52:35;101428.00;;;-4.80
73937;BMP180;59249;59.736;30.568;2022-11-20T06:55:09;101423.00;;;-4.70
73937;BMP180;59249;59.736;30.568;2022-11-20T06:57:39;101422.00;;;-4.80
73937;BMP180;59249;59.736;30.568;2022-11-20T07:00:08;101412.00;;;-4.80
73937;BMP180;59249;59.736;30.568;2022-11-20T07:02:46;101410.00;;;-4.90
73937;BMP180;59249;59.736;30.568;2022-11-20T07:05:15;101416.00;;;-4.90
73937;BMP180;59249;59.736;30.568;2022-11-20T07:07:45;101426.00;;;-4.80
73937;BMP180;59249;59.736;30.568;2022-11-20T07:10:13;101416.00;;;-4.80
73937;BMP180;59249;59.736;30.568;2022-11-20T07:12:49;101428.00;;;-4.80
73937;BMP180;59249;59.736;30.568;2022-11-20T07:15:58;101433.00;;;-4.80
73937;BMP180;59249;59.736;30.568;2022-11-20T07:18:30;101435.00;;;-4.80
73937;BMP180;59249;59.736;30.568;2022-11-20T07:21:00;101431.00;;;-4.80
73937;BMP180;59249;59.736;30.568;2022-11-20T07:23:31;101432.00;;;-4.70
73937;BMP180;59249;59.736;30.568;2022-11-20T07:26:04;101439.00;;;-4.70
73937;BMP180;59249;59.736;30.568;2022-11-20T07:28:35;101444.00;;;-4.70
73937;BMP180;59249;59.736;30.568;2022-11-20T07:31:05;101439.00;;;-4.60
73937;BMP180;59249;59.736;30.568;2022-11-20T07:33:36;101456.00;;;-4.50
73937;BMP180;59249;59.736;30.568;2022-11-20T07:36:10;101446.00;;;-4.40
73937;BMP180;59249;59.736;30.568;2022-11-20T07:38:44;101453.00;;;-4.40
73937;BMP180;59249;59.736;30.568;2022-11-20T07:41:12;101456.00;;;-4.40
73937;BMP180;59249;59.736;30.568;2022-11-20T07:43:47;101444.00;;;-4.50
73937;BMP180;59249;59.736;30.568;2022-11-20T07:46:16;101439.00;;;-4.50
73937;BMP180;59249;59.736;30.568;2022-11-20T07:48:46;101445.00;;;-4.40
73937;BMP180;59249;59.736;30.568;2022-11-20T07:51:15;101436.00;;;-4.40
73937;BMP180;59249;59.736;30.568;2022-11-20T07:53:43;101434.00;;;-4.40
73937;BMP180;59249;59.736;30.568;2022-11-20T07:56:12;101443.00;;;-4.40
73937;BMP180;59249;59.736;30.568;2022-11-20T07:58:41;101442.00;;;-4.30
73937;BMP180;59249;59.736;30.568;2022-11-20T08:01:13;101437.00;;;-4.40
73937;BMP180;59249;59.736;30.568;2022-11-20T08:03:41;101445.00;;;-4.30
73937;BMP180;59249;59.736;30.568;2022-11-20T08:06:12;101446.00;;;-4.30
73937;BMP180;59249;59.736;30.568;2022-11-20T08:08:42;101434.00;;;-4.30
73937;BMP180;59249;59.736;30.568;2022-11-20T08:11:11;101448.00;;;-4.30
73937;BMP180;59249;59.736;30.568;2022-11-20T08:13:58;101442.00;;;-4.10
73937;BMP180;59249;59.736;30.568;2022-11-20T08:16:46;101439.00;;;-4.10
73937;BMP180;59249;59.736;30.568;2022-11-20T08:19:18;101435.00;;;-4.10
73937;BMP180;59249;59.736;30.568;2022-11-20T08:21:49;101443.00;;;-4.10
73937;BMP180;59249;59.736;30.568;2022-11-20T08:24:18;101445.00;;;-4.00
73937;BMP180;59249;59.736;30.568;2022-11-20T08:26:47;101440.00;;;-4.00
73937;BMP180;59249;59.736;30.568;2022-11-20T08:29:17;101446.00;;;-4.10
73937;BMP180;59249;59.736;30.568;2022-11-20T08:31:46;101442.00;;;-4.10
73937;BMP180;59249;59.736;30.568;2022-11-20T08:34:15;101448.00;;;-3.90
73937;BMP180;59249;59.736;30.568;2022-11-20T08:36:47;101449.00;;;-3.90
73937;BMP180;59249;59.736;30.568;2022-11-20T08:39:17;101463.00;;;-3.80
73937;BMP180;59249;59.736;30.568;2022-11-20T08:41:46;101456.00;;;-3.90
73937;BMP180;59249;59.736;30.568;2022-11-20T08:44:17;101465.00;;;-3.90
73937;BMP180;59249;59.736;30.568;2022-11-20T08:46:45;101461.00;;;-3.80
73937;BMP180;59249;59.736;30.568;2022-11-20T08:49:14;101456.00;;;-3.90
73937;BMP180;59249;59.736;30.568;2022-11-20T08:51:43;101448.00;;;-3.90
73937;BMP180;59249;59.736;30.568;2022-11-20T08:54:21;101455.00;;;-3.90
73937;BMP180;59249;59.736;30.568;2022-11-20T08:56:51;101451.00;;;-3.90
73937;BMP180;59249;59.736;30.568;2022-11-20T08:59:23;101459.00;;;-3.90
73937;BMP180;59249;59.736;30.568;2022-11-20T09:02:19;101460.00;;;-3.80
73937;BMP180;59249;59.736;30.568;2022-11-20T09:04:51;101452.00;;;-3.80
73937;BMP180;59249;59.736;30.568;2022-11-20T09:07:20;101442.00;;;-3.80
73937;BMP180;59249;59.736;30.568;2022-11-20T09:09:50;101444.00;;;-3.80
73937;BMP180;59249;59.736;30.568;2022-11-20T09:12:39;101453.00;;;-3.80
73937;BMP180;59249;59.736;30.568;2022-11-20T09:15:08;101450.00;;;-3.80
73937;BMP180;59249;59.736;30.568;2022-11-20T09:17:38;101447.00;;;-3.80
73937;BMP180;59249;59.736;30.568;2022-11-20T09:20:07;101455.00;;;-3.80
73937;BMP180;59249;59.736;30.568;2022-11-20T09:22:39;101462.00;;;-3.80
73937;BMP180;59249;59.736;30.568;2022-11-20T09:25:10;101466.00;;;-3.80
73937;BMP180;59249;59.736;30.568;2022-11-20T09:27:38;101458.00;;;-3.70
73937;BMP180;59249;59.736;30.568;2022-11-20T09:35:47;101465.00;;;-3.60
73937;BMP180;59249;59.736;30.568;2022-11-20T09:38:41;101454.00;;;-3.70
73937;BMP180;59249;59.736;30.568;2022-11-20T09:44:24;101450.00;;;-3.80
73937;BMP180;59249;59.736;30.568;2022-11-20T09:47:09;101449.00;;;-3.70
73937;BMP180;59249;59.736;30.568;2022-11-20T09:49:57;101451.00;;;-3.70
73937;BMP180;59249;59.736;30.568;2022-11-20T09:52:44;101451.00;;;-3.70
73937;BMP180;59249;59.736;30.568;2022-11-20T09:55:24;101440.00;;;-3.70
73937;BMP180;59249;59.736;30.568;2022-11-20T09:57:56;101437.00;;;-3.60
73937;BMP180;59249;59.736;30.568;2022-11-20T10:00:27;101441.00;;;-3.60
73937;BMP180;59249;59.736;30.568;2022-11-20T10:03:01;101445.00;;;-3.60
73937;BMP180;59249;59.736;30.568;2022-11-20T10:05:39;101446.00;;;-3.50
73937;BMP180;59249;59.736;30.568;2022-11-20T10:08:16;101450.00;;;-3.60
73937;BMP180;59249;59.736;30.568;2022-11-20T10:10:53;101449.00;;;-3.50
73937;BMP180;59249;59.736;30.568;2022-11-20T10:13:39;101451.00;;;-3.60
73937;BMP180;59249;59.736;30.568;2022-11-20T10:16:21;101454.00;;;-3.50
73937;BMP180;59249;59.736;30.568;2022-11-20T10:19:18;101454.00;;;-3.50
73937;BMP180;59249;59.736;30.568;2022-11-20T10:22:08;101467.00;;;-3.40
73937;BMP180;59249;59.736;30.568;2022-11-20T10:24:55;101460.00;;;-3.40
73937;BMP180;59249;59.736;30.568;2022-11-20T10:27:44;101460.00;;;-3.30
73937;BMP180;59249;59.736;30.568;2022-11-20T10:30:30;101462.00;;;-3.30
73937;BMP180;59249;59.736;30.568;2022-11-20T10:33:08;101467.00;;;-3.30
73937;BMP180;59249;59.736;30.568;2022-11-20T10:35:50;101458.00;;;-3.30
73937;BMP180;59249;59.736;30.568;2022-11-20T10:38:28;101457.00;;;-3.20
73937;BMP180;59249;59.736;30.568;2022-11-20T10:41:03;101457.00;;;-3.30
73937;BMP180;59249;59.736;30.568;2022-11-20T10:44:00;101448.00;;;-3.20
73937;BMP180;59249;59.736;30.568;2022-11-20T10:46:38;101459.00;;;-3.20
73937;BMP180;59249;59.736;30.568;2022-11-20T10:49:15;101465.00;;;-3.40
73937;BMP180;59249;59.736;30.568;2022-11-20T10:51:55;101457.00;;;-3.40
73937;BMP180;59249;59.736;30.568;2022-11-20T10:54:36;101460.00;;;-3.30
73937;BMP180;59249;59.736;30.568;2022-11-20T10:57:20;101464.00;;;-3.30
73937;BMP180;59249;59.736;30.568;2022-11-20T11:00:05;101454.00;;;-3.20
73937;BMP180;59249;59.736;30.568;2022-11-20T11:02:40;101454.00;;;-3.10
73937;BMP180;59249;59.736;30.568;2022-11-20T11:05:24;101456.00;;;-3.20
73937;BMP180;59249;59.736;30.568;2022-11-20T11:08:01;101460.00;;;-3.20
73937;BMP180;59249;59.736;30.568;2022-11-20T11:10:38;101466.00;;;-3.10
73937;BMP180;59249;59.736;30.568;2022-11-20T11:13:21;101455.00;;;-3.10
73937;BMP180;59249;59.736;30.568;2022-11-20T11:15:51;101457.00;;;-3.10
73937;BMP180;59249;59.736;30.568;2022-11-20T11:18:26;101462.00;;;-3.10
73937;BMP180;59249;59.736;30.568;2022-11-20T11:20:58;101469.00;;;-3.20
73937;BMP180;59249;59.736;30.568;2022-11-20T11:23:32;101472.00;;;-3.20
73937;BMP180;59249;59.736;30.568;2022-11-20T11:26:05;101470.00;;;-3.10
73937;BMP180;59249;59.736;30.568;2022-11-20T11:28:36;101468.00;;;-3.20
73937;BMP180;59249;59.736;30.568;2022-11-20T11:31:05;101463.00;;;-3.10
73937;BMP180;59249;59.736;30.568;2022-11-20T11:33:35;101463.00;;;-3.10
73937;BMP180;59249;59.736;30.568;2022-11-20T11:36:16;101456.00;;;-3.10
73937;BMP180;59249;59.736;30.568;2022-11-20T11:38:51;101463.00;;;-3.10
73937;BMP180;59249;59.736;30.568;2022-11-20T11:41:24;101458.00;;;-3.10
73937;BMP180;59249;59.736;30.568;2022-11-20T11:44:02;101458.00;;;-3.20
73937;BMP180;59249;59.736;30.568;2022-11-20T11:47:04;101457.00;;;-3.20
73937;BMP180;59249;59.736;30.568;2022-11-20T11:49:39;101455.00;;;-3.20
73937;BMP180;59249;59.736;30.568;2022-11-20T11:52:11;101456.00;;;-3.20
73937;BMP180;59249;59.736;30.568;2022-11-20T11:54:47;101451.00;;;-3.20
73937;BMP180;59249;59.736;30.568;2022-11-20T11:57:24;101455.00;;;-3.30
73937;BMP180;59249;59.736;30.568;2022-11-20T12:00:02;101453.00;;;-3.30
73937;BMP180;59249;59.736;30.568;2022-11-20T12:02:42;101463.00;;;-3.30
73937;BMP180;59249;59.736;30.568;2022-11-20T12:05:27;101451.00;;;-3.30
73937;BMP180;59249;59.736;30.568;2022-11-20T12:08:06;101449.00;;;-3.20
73937;BMP180;59249;59.736;30.568;2022-11-20T12:10:46;101458.00;;;-3.20
73937;BMP180;59249;59.736;30.568;2022-11-20T12:16:14;101452.00;;;-3.10
73937;BMP180;59249;59.736;30.568;2022-11-20T12:18:49;101455.00;;;-3.10
73937;BMP180;59249;59.736;30.568;2022-11-20T12:21:30;101459.00;;;-3.10
73937;BMP180;59249;59.736;30.568;2022-11-20T12:24:29;101461.00;;;-3.20
73937;BMP180;59249;59.736;30.568;2022-11-20T12:27:24;101465.00;;;-3.10
73937;BMP180;59249;59.736;30.568;2022-11-20T12:30:18;101469.00;;;-3.10
73937;BMP180;59249;59.736;30.568;2022-11-20T12:33:02;101465.00;;;-3.10
73937;BMP180;59249;59.736;30.568;2022-11-20T12:35:52;101473.00;;;-3.00
73937;BMP180;59249;59.736;30.568;2022-11-20T12:38:51;101473.00;;;-3.20
73937;BMP180;59249;59.736;30.568;2022-11-20T12:41:45;101475.00;;;-3.00
73937;BMP180;59249;59.736;30.568;2022-11-20T12:44:52;101480.00;;;-3.10
73937;BMP180;59249;59.736;30.568;2022-11-20T12:47:49;101476.00;;;-3.10
73937;BMP180;59249;59.736;30.568;2022-11-20T12:50:46;101475.00;;;-3.10
73937;BMP180;59249;59.736;30.568;2022-11-20T12:53:55;101468.00;;;-3.10
73937;BMP180;59249;59.736;30.568;2022-11-20T12:56:41;101464.00;;;-3.00
73937;BMP180;59249;59.736;30.568;2022-11-20T12:59:28;101473.00;;;-3.10
73937;BMP180;59249;59.736;30.568;2022-11-20T13:02:23;101473.00;;;-3.00
73937;BMP180;59249;59.736;30.568;2022-11-20T13:05:07;101474.00;;;-3.10
73937;BMP180;59249;59.736;30.568;2022-11-20T13:07:48;101479.00;;;-3.10
73937;BMP180;59249;59.736;30.568;2022-11-20T13:10:29;101487.00;;;-3.20
73937;BMP180;59249;59.736;30.568;2022-11-20T13:13:11;101487.00;;;-3.10
73937;BMP180;59249;59.736;30.568;2022-11-20T13:15:57;101499.00;;;-3.10
73937;BMP180;59249;59.736;30.568;2022-11-20T13:18:35;101478.00;;;-3.20
73937;BMP180;59249;59.736;30.568;2022-11-20T13:21:18;101491.00;;;-3.10
73937;BMP180;59249;59.736;30.568;2022-11-20T13:23:48;101495.00;;;-3.10
73937;BMP180;59249;59.736;30.568;2022-11-20T13:26:23;101488.00;;;-3.20
73937;BMP180;59249;59.736;30.568;2022-11-20T13:29:02;101496.00;;;-3.10
73937;BMP180;59249;59.736;30.568;2022-11-20T13:31:41;101512.00;;;-3.20
73937;BMP180;59249;59.736;30.568;2022-11-20T13:34:22;101508.00;;;-3.10
73937;BMP180;59249;59.736;30.568;2022-11-20T13:36:55;101515.00;;;-3.10
73937;BMP180;59249;59.736;30.568;2022-11-20T13:39:25;101517.00;;;-3.20
73937;BMP180;59249;59.736;30.568;2022-11-20T13:41:58;101510.00;;;-3.20
73937;BMP180;59249;59.736;30.568;2022-11-20T13:44:33;101511.00;;;-3.30
73937;BMP180;59249;59.736;30.568;2022-11-20T13:47:20;101515.00;;;-3.20
73937;BMP180;59249;59.736;30.568;2022-11-20T13:49:53;101522.00;;;-3.20
73937;BMP180;59249;59.736;30.568;2022-11-20T13:52:39;101521.00;;;-3.20
73937;BMP180;59249;59.736;30.568;2022-11-20T13:55:19;101518.00;;;-3.10
73937;BMP180;59249;59.736;30.568;2022-11-20T13:58:06;101522.00;;;-3.20
73937;BMP180;59249;59.736;30.568;2022-11-20T14:00:50;101529.00;;;-3.10
73937;BMP180;59249;59.736;30.568;2022-11-20T14:03:25;101527.00;;;-3.10
73937;BMP180;59249;59.736;30.568;2022-11-20T14:06:40;101537.00;;;-3.20
73937;BMP180;59249;59.736;30.568;2022-11-20T14:09:12;101538.00;;;-3.20
73937;BMP180;59249;59.736;30.568;2022-11-20T14:11:54;101536.00;;;-3.30
73937;BMP180;59249;59.736;30.568;2022-11-20T14:14:26;101535.00;;;-3.30
73937;BMP180;59249;59.736;30.568;2022-11-20T14:17:08;101537.00;;;-3.30
73937;BMP180;59249;59.736;30.568;2022-11-20T14:19:45;101532.00;;;-3.30
73937;BMP180;59249;59.736;30.568;2022-11-20T14:22:18;101532.00;;;-3.30
73937;BMP180;59249;59.736;30.568;2022-11-20T14:25:02;101527.00;;;-3.40
73937;BMP180;59249;59.736;30.568;2022-11-20T14:27:36;101529.00;;;-3.30
73937;BMP180;59249;59.736;30.568;2022-11-20T14:30:19;101524.00;;;-3.30
73937;BMP180;59249;59.736;30.568;2022-11-20T14:32:53;101531.00;;;-3.30
73937;BMP180;59249;59.736;30.568;2022-11-20T14:35:26;101528.00;;;-3.30
73937;BMP180;59249;59.736;30.568;2022-11-20T14:37:58;101530.00;;;-3.40
73937;BMP180;59249;59.736;30.568;2022-11-20T14:40:30;101532.00;;;-3.30
73937;BMP180;59249;59.736;30.568;2022-11-20T14:43:17;101549.00;;;-3.30
73937;BMP180;59249;59.736;30.568;2022-11-20T14:45:54;101543.00;;;-3.30
73937;BMP180;59249;59.736;30.568;2022-11-20T14:48:30;101535.00;;;-3.30